createdAt,value
2019-01-12T00:00:28.249Z,-1.579895
2019-01-12T00:01:37.756Z,-1.589966
2019-01-12T00:02:47.287Z,-1.579895
2019-01-12T00:03:56.791Z,-1.559753
2019-01-12T00:05:06.305Z,-1.539612
2019-01-12T00:06:15.827Z,-1.539612
2019-01-12T00:07:25.356Z,-1.539612
2019-01-12T00:08:34.906Z,-1.539612
2019-01-12T00:09:44.436Z,-1.529541
2019-01-12T00:10:53.962Z,-1.559753
2019-01-12T00:12:03.524Z,-1.529541
2019-01-12T00:13:13.157Z,-1.529541
2019-01-12T00:14:22.712Z,-1.509399
2019-01-12T00:15:32.263Z,-1.529541
2019-01-12T00:16:41.806Z,-1.529541
2019-01-12T00:17:51.334Z,-1.509399
2019-01-12T00:19:00.856Z,-1.499329
2019-01-12T00:20:10.396Z,-1.479187
2019-01-12T00:21:19.934Z,-1.479187
2019-01-12T00:22:29.494Z,-1.469116
2019-01-12T00:23:39.025Z,-1.459045
2019-01-12T00:24:48.541Z,-1.438904
2019-01-12T00:25:58.063Z,-1.428833
2019-01-12T00:27:07.599Z,-1.428833
2019-01-12T00:28:17.138Z,-1.428833
2019-01-12T00:29:27.667Z,-1.428833
2019-01-12T00:30:38.197Z,-1.398621
2019-01-12T00:31:47.727Z,-1.408691
2019-01-12T00:32:57.276Z,-1.408691
2019-01-12T00:34:06.807Z,-1.398621
2019-01-12T00:35:16.308Z,-1.368408
2019-01-12T00:36:25.815Z,-1.378479
2019-01-12T00:37:35.331Z,-1.378479
2019-01-12T00:38:44.851Z,-1.378479
2019-01-12T00:39:54.372Z,-1.378479
2019-01-12T00:41:03.883Z,-1.398621
2019-01-12T00:42:14.401Z,-1.378479
2019-01-12T00:43:23.958Z,-1.378479
2019-01-12T00:44:33.502Z,-1.378479
2019-01-12T00:45:42.029Z,-1.378479
2019-01-12T00:46:51.539Z,-1.368408
2019-01-12T00:48:01.078Z,-1.378479
2019-01-12T00:49:10.589Z,-1.348267
2019-01-12T00:50:20.115Z,-1.348267
2019-01-12T00:51:29.636Z,-1.328125
2019-01-12T00:52:39.155Z,-1.328125
2019-01-12T00:53:48.753Z,-1.318054
2019-01-12T00:54:58.285Z,-1.297913
2019-01-12T00:56:07.813Z,-1.297913
2019-01-12T00:57:18.337Z,-1.318054
2019-01-12T00:58:27.869Z,-1.297913
2019-01-12T00:59:37.399Z,-1.297913
2019-01-12T01:00:46.937Z,-1.297913
2019-01-12T01:01:56.449Z,-1.318054
2019-01-12T01:03:05.995Z,-1.318054
2019-01-12T01:04:15.515Z,-1.287842
2019-01-12T01:05:26.048Z,-1.287842
2019-01-12T01:06:35.607Z,-1.287842
2019-01-12T01:07:45.137Z,-1.2677
2019-01-12T01:08:54.685Z,-1.257629
2019-01-12T01:10:04.215Z,-1.2677
2019-01-12T01:11:13.749Z,-1.247559
2019-01-12T01:12:23.300Z,-1.227417
2019-01-12T01:13:32.849Z,-1.227417
2019-01-12T01:14:42.368Z,-1.227417
2019-01-12T01:15:51.923Z,-1.217346
2019-01-12T01:17:01.432Z,-1.197205
2019-01-12T01:18:11.005Z,-1.197205
2019-01-12T01:19:20.521Z,-1.197205
2019-01-12T01:20:30.034Z,-1.217346
2019-01-12T01:21:39.547Z,-1.197205
2019-01-12T01:22:49.106Z,-1.187134
2019-01-12T01:23:58.661Z,-1.187134
2019-01-12T01:25:08.192Z,-1.146851
2019-01-12T01:26:17.716Z,-1.166992
2019-01-12T01:27:27.242Z,-1.146851
2019-01-12T01:28:36.793Z,-1.13678
2019-01-12T01:29:46.326Z,-1.146851
2019-01-12T01:30:55.882Z,-1.146851
2019-01-12T01:32:05.405Z,-1.146851
2019-01-12T01:33:14.950Z,-1.13678
2019-01-12T01:34:25.465Z,-1.13678
2019-01-12T01:35:34.968Z,-1.13678
2019-01-12T01:36:44.485Z,-1.146851
2019-01-12T01:37:54.026Z,-1.116638
2019-01-12T01:39:03.586Z,-1.116638
2019-01-12T01:40:13.108Z,-1.106567
2019-01-12T01:41:22.650Z,-1.076355
2019-01-12T01:42:32.180Z,-1.066284
2019-01-12T01:43:41.742Z,-1.046143
2019-01-12T01:44:51.260Z,-1.066284
2019-01-12T01:46:00.767Z,-1.066284
2019-01-12T01:47:10.303Z,-1.066284
2019-01-12T01:48:19.853Z,-1.066284
2019-01-12T01:49:29.369Z,-1.066284
2019-01-12T01:50:38.873Z,-1.076355
2019-01-12T01:51:48.393Z,-1.076355
2019-01-12T01:52:57.918Z,-1.066284
2019-01-12T01:54:07.585Z,-1.046143
2019-01-12T01:55:18.109Z,-1.036072
2019-01-12T01:56:27.644Z,-1.036072
2019-01-12T01:57:37.150Z,-1.036072
2019-01-12T01:58:46.705Z,-1.036072
2019-01-12T01:59:56.267Z,-1.046143
2019-01-12T02:01:05.769Z,-1.01593
2019-01-12T02:02:14.282Z,-1.01593
2019-01-12T02:03:23.841Z,-1.005859
2019-01-12T02:04:33.397Z,-1.005859
2019-01-12T02:05:42.931Z,-0.965576
2019-01-12T02:06:52.455Z,-0.985718
2019-01-12T02:08:01.989Z,-0.985718
2019-01-12T02:09:11.549Z,-0.965576
2019-01-12T02:10:21.056Z,-0.965576
2019-01-12T02:11:30.584Z,-0.955505
2019-01-12T02:12:40.103Z,-0.925293
2019-01-12T02:13:49.660Z,-0.925293
2019-01-12T02:14:59.180Z,-0.895081
2019-01-12T02:16:08.740Z,-0.895081
2019-01-12T02:17:18.271Z,-0.854797
2019-01-12T02:18:27.783Z,-0.854797
2019-01-12T02:19:37.323Z,-0.854797
2019-01-12T02:20:46.864Z,-0.88501
2019-01-12T02:21:56.365Z,-0.864868
2019-01-12T02:23:05.898Z,-0.854797
2019-01-12T02:24:15.439Z,-0.854797
2019-01-12T02:25:24.947Z,-0.854797
2019-01-12T02:26:34.477Z,-0.834656
2019-01-12T02:27:44.004Z,-0.834656
2019-01-12T02:28:53.542Z,-0.834656
2019-01-12T02:30:03.145Z,-0.824585
2019-01-12T02:31:13.652Z,-0.804443
2019-01-12T02:32:23.197Z,-0.824585
2019-01-12T02:33:32.741Z,-0.804443
2019-01-12T02:34:42.315Z,-0.804443
2019-01-12T02:35:51.866Z,-0.784302
2019-01-12T02:37:01.380Z,-0.784302
2019-01-12T02:38:10.918Z,-0.784302
2019-01-12T02:39:20.483Z,-0.784302
2019-01-12T02:40:30.014Z,-0.774231
2019-01-12T02:41:39.539Z,-0.784302
2019-01-12T02:42:49.106Z,-0.784302
2019-01-12T02:43:58.726Z,-0.784302
2019-01-12T02:45:08.363Z,-0.774231
2019-01-12T02:46:17.981Z,-0.744019
2019-01-12T02:47:27.565Z,-0.713806
2019-01-12T02:48:37.168Z,-0.713806
2019-01-12T02:49:46.772Z,-0.703735
2019-01-12T02:50:56.410Z,-0.703735
2019-01-12T02:52:06.082Z,-0.703735
2019-01-12T02:53:15.742Z,-0.723877
2019-01-12T02:54:25.409Z,-0.703735
2019-01-12T02:55:35.007Z,-0.713806
2019-01-12T02:56:44.673Z,-0.703735
2019-01-12T02:57:54.289Z,-0.713806
2019-01-12T02:59:03.813Z,-0.703735
2019-01-12T03:00:13.364Z,-0.713806
2019-01-12T03:01:22.894Z,-0.683594
2019-01-12T03:02:32.409Z,-0.683594
2019-01-12T03:03:41.942Z,-0.673523
2019-01-12T03:04:51.460Z,-0.673523
2019-01-12T03:06:00.997Z,-0.653381
2019-01-12T03:07:10.517Z,-0.683594
2019-01-12T03:08:20.060Z,-0.683594
2019-01-12T03:09:29.594Z,-0.703735
2019-01-12T03:10:39.135Z,-0.703735
2019-01-12T03:11:48.648Z,-0.683594
2019-01-12T03:12:58.143Z,-0.683594
2019-01-12T03:14:07.730Z,-0.703735
2019-01-12T03:15:17.258Z,-0.703735
2019-01-12T03:16:26.781Z,-0.653381
2019-01-12T03:17:36.296Z,-0.653381
2019-01-12T03:18:45.818Z,-0.643311
2019-01-12T03:19:55.361Z,-0.643311
2019-01-12T03:21:04.872Z,-0.653381
2019-01-12T03:22:14.388Z,-0.643311
2019-01-12T03:23:23.911Z,-0.643311
2019-01-12T03:24:33.471Z,-0.643311
2019-01-12T03:25:43.045Z,-0.643311
2019-01-12T03:26:52.563Z,-0.623169
2019-01-12T03:28:02.111Z,-0.623169
2019-01-12T03:29:11.646Z,-0.613098
2019-01-12T03:30:21.188Z,-0.613098
2019-01-12T03:31:30.723Z,-0.613098
2019-01-12T03:32:40.272Z,-0.592957
2019-01-12T03:33:49.793Z,-0.572815
2019-01-12T03:34:59.336Z,-0.592957
2019-01-12T03:36:08.856Z,-0.613098
2019-01-12T03:37:18.357Z,-0.572815
2019-01-12T03:38:27.877Z,-0.562744
2019-01-12T03:39:37.413Z,-0.542603
2019-01-12T03:40:46.953Z,-0.542603
2019-01-12T03:41:56.476Z,-0.532532
2019-01-12T03:43:06.017Z,-0.522461
2019-01-12T03:44:15.512Z,-0.522461
2019-01-12T03:45:25.042Z,-0.532532
2019-01-12T03:46:34.555Z,-0.532532
2019-01-12T03:47:44.099Z,-0.522461
2019-01-12T03:48:53.643Z,-0.532532
2019-01-12T03:50:03.157Z,-0.502319
2019-01-12T03:51:12.690Z,-0.492249
2019-01-12T03:52:22.217Z,-0.492249
2019-01-12T03:53:31.730Z,-0.502319
2019-01-12T03:54:41.255Z,-0.472107
2019-01-12T03:55:50.810Z,-0.472107
2019-01-12T03:57:00.319Z,-0.492249
2019-01-12T03:58:10.848Z,-0.472107
2019-01-12T03:59:20.366Z,-0.462036
2019-01-12T04:00:29.925Z,-0.472107
2019-01-12T04:01:39.447Z,-0.441895
2019-01-12T04:02:48.962Z,-0.441895
2019-01-12T04:03:58.495Z,-0.431824
2019-01-12T04:05:08.039Z,-0.431824
2019-01-12T04:06:17.600Z,-0.431824
2019-01-12T04:07:27.141Z,-0.391541
2019-01-12T04:08:36.657Z,-0.38147
2019-01-12T04:09:46.220Z,-0.38147
2019-01-12T04:10:55.778Z,-0.391541
2019-01-12T04:12:05.304Z,-0.391541
2019-01-12T04:13:14.844Z,-0.38147
2019-01-12T04:14:24.368Z,-0.38147
2019-01-12T04:15:33.902Z,-0.38147
2019-01-12T04:16:43.434Z,-0.38147
2019-01-12T04:17:52.986Z,-0.38147
2019-01-12T04:19:02.514Z,-0.38147
2019-01-12T04:20:12.107Z,-0.38147
2019-01-12T04:21:21.623Z,-0.38147
2019-01-12T04:22:31.169Z,-0.391541
2019-01-12T04:23:39.681Z,-0.391541
2019-01-12T04:24:49.223Z,-0.38147
2019-01-12T04:25:58.802Z,-0.38147
2019-01-12T04:27:09.325Z,-0.361328
2019-01-12T04:28:18.851Z,-0.351257
2019-01-12T04:29:28.381Z,-0.351257
2019-01-12T04:30:37.903Z,-0.341187
2019-01-12T04:31:47.418Z,-0.321045
2019-01-12T04:32:56.956Z,-0.310974
2019-01-12T04:34:06.459Z,-0.310974
2019-01-12T04:35:15.983Z,-0.310974
2019-01-12T04:36:25.528Z,-0.290833
2019-01-12T04:37:35.073Z,-0.290833
2019-01-12T04:38:44.569Z,-0.280762
2019-01-12T04:39:54.101Z,-0.290833
2019-01-12T04:41:03.635Z,-0.280762
2019-01-12T04:42:13.145Z,-0.280762
2019-01-12T04:43:22.656Z,-0.280762
2019-01-12T04:44:32.361Z,-0.290833
2019-01-12T04:45:42.358Z,-0.26062
2019-01-12T04:46:52.009Z,-0.290833
2019-01-12T04:48:01.540Z,-0.280762
2019-01-12T04:49:11.061Z,-0.280762
2019-01-12T04:50:20.590Z,-0.250549
2019-01-12T04:51:30.143Z,-0.230408
2019-01-12T04:52:39.647Z,-0.250549
2019-01-12T04:53:49.186Z,-0.26062
2019-01-12T04:54:58.711Z,-0.250549
2019-01-12T04:56:08.245Z,-0.250549
2019-01-12T04:57:17.792Z,-0.250549
2019-01-12T04:58:27.318Z,-0.250549
2019-01-12T04:59:36.856Z,-0.230408
2019-01-12T05:00:46.386Z,-0.210266
2019-01-12T05:01:55.911Z,-0.210266
2019-01-12T05:03:05.418Z,-0.200195
2019-01-12T05:04:14.950Z,-0.200195
2019-01-12T05:05:24.504Z,-0.200195
2019-01-12T05:06:34.044Z,-0.180054
2019-01-12T05:07:43.593Z,-0.200195
2019-01-12T05:08:53.110Z,-0.169983
2019-01-12T05:10:02.634Z,-0.200195
2019-01-12T05:11:12.197Z,-0.180054
2019-01-12T05:12:21.701Z,-0.200195
2019-01-12T05:13:31.257Z,-0.180054
2019-01-12T05:14:40.782Z,-0.180054
2019-01-12T05:15:50.340Z,-0.180054
2019-01-12T05:16:59.868Z,-0.200195
2019-01-12T05:18:09.406Z,-0.200195
2019-01-12T05:19:18.923Z,-0.180054
2019-01-12T05:20:28.469Z,-0.180054
2019-01-12T05:21:38.011Z,-0.180054
2019-01-12T05:22:47.551Z,-0.180054
2019-01-12T05:23:57.073Z,-0.180054
2019-01-12T05:25:06.618Z,-0.180054
2019-01-12T05:26:16.163Z,-0.200195
2019-01-12T05:27:25.707Z,-0.180054
2019-01-12T05:28:35.268Z,-0.180054
2019-01-12T05:29:44.799Z,-0.180054
2019-01-12T05:30:54.326Z,-0.169983
2019-01-12T05:32:03.863Z,-0.169983
2019-01-12T05:33:13.395Z,-0.169983
2019-01-12T05:34:22.941Z,-0.180054
2019-01-12T05:35:32.492Z,-0.180054
2019-01-12T05:36:42.013Z,-0.169983
2019-01-12T05:37:51.544Z,-0.169983
2019-01-12T05:39:01.071Z,-0.149841
2019-01-12T05:40:10.627Z,-0.149841
2019-01-12T05:41:20.174Z,-0.149841
2019-01-12T05:42:29.708Z,-0.149841
2019-01-12T05:43:39.221Z,-0.149841
2019-01-12T05:44:48.744Z,-0.149841
2019-01-12T05:45:58.263Z,-0.149841
2019-01-12T05:47:07.844Z,-0.149841
2019-01-12T05:48:17.408Z,-0.149841
2019-01-12T05:49:26.950Z,-0.149841
2019-01-12T05:50:36.461Z,-0.139771
2019-01-12T05:51:46.029Z,-0.169983
2019-01-12T05:52:55.610Z,-0.149841
2019-01-12T05:54:05.137Z,-0.149841
2019-01-12T05:55:14.668Z,-0.139771
2019-01-12T05:56:24.200Z,-0.149841
2019-01-12T05:57:33.699Z,-0.149841
2019-01-12T05:58:43.245Z,-0.149841
2019-01-12T05:59:52.742Z,-0.139771
2019-01-12T06:01:02.327Z,-0.149841
2019-01-12T06:02:11.864Z,-0.139771
2019-01-12T06:03:21.374Z,-0.149841
2019-01-12T06:04:30.902Z,-0.149841
2019-01-12T06:05:40.434Z,-0.149841
2019-01-12T06:06:50.000Z,-0.149841
2019-01-12T06:07:59.504Z,-0.149841
2019-01-12T06:09:09.033Z,-0.149841
2019-01-12T06:10:18.589Z,-0.149841
2019-01-12T06:11:28.142Z,-0.139771
2019-01-12T06:12:37.664Z,-0.139771
2019-01-12T06:13:47.176Z,-0.149841
2019-01-12T06:14:56.699Z,-0.149841
2019-01-12T06:16:06.207Z,-0.149841
2019-01-12T06:17:15.763Z,-0.149841
2019-01-12T06:18:25.312Z,-0.149841
2019-01-12T06:19:34.841Z,-0.139771
2019-01-12T06:20:44.370Z,-0.139771
2019-01-12T06:21:54.064Z,-0.149841
2019-01-12T06:23:03.571Z,-0.139771
2019-01-12T06:24:13.071Z,-0.139771
2019-01-12T06:25:22.677Z,-0.139771
2019-01-12T06:26:32.198Z,-0.149841
2019-01-12T06:27:41.707Z,-0.139771
2019-01-12T06:28:51.284Z,-0.149841
2019-01-12T06:30:00.849Z,-0.139771
2019-01-12T06:31:10.377Z,-0.149841
2019-01-12T06:32:19.936Z,-0.149841
2019-01-12T06:33:29.594Z,-0.139771
2019-01-12T06:34:39.115Z,-0.139771
2019-01-12T06:35:47.639Z,-0.139771
2019-01-12T06:36:57.199Z,-0.1297
2019-01-12T06:38:06.714Z,-0.139771
2019-01-12T06:39:16.252Z,-0.139771
2019-01-12T06:40:25.770Z,-0.149841
2019-01-12T06:41:35.315Z,-0.139771
2019-01-12T06:42:44.836Z,-0.139771
2019-01-12T06:43:54.380Z,-0.1297
2019-01-12T06:45:03.901Z,-0.1297
2019-01-12T06:46:13.421Z,-0.1297
2019-01-12T06:47:22.955Z,-0.139771
2019-01-12T06:48:32.473Z,-0.1297
2019-01-12T06:49:42.014Z,-0.1297
2019-01-12T06:50:51.545Z,-0.1297
2019-01-12T06:52:01.182Z,-0.109558
2019-01-12T06:53:10.722Z,-0.099487
2019-01-12T06:54:20.259Z,-0.1297
2019-01-12T06:55:29.813Z,-0.1297
2019-01-12T06:56:39.373Z,-0.109558
2019-01-12T06:57:48.948Z,-0.109558
2019-01-12T06:58:58.509Z,-0.1297
2019-01-12T07:00:08.049Z,-0.1297
2019-01-12T07:01:17.567Z,-0.109558
2019-01-12T07:02:27.113Z,-0.099487
2019-01-12T07:03:37.598Z,-0.099487
2019-01-12T07:04:47.117Z,-0.079346
2019-01-12T07:05:56.639Z,-0.079346
2019-01-12T07:07:06.167Z,-0.099487
2019-01-12T07:08:15.686Z,-0.079346
2019-01-12T07:09:25.239Z,-0.059204
2019-01-12T07:10:34.787Z,-0.059204
2019-01-12T07:11:44.336Z,-0.018921
2019-01-12T07:12:53.871Z,0.001221
2019-01-12T07:14:03.410Z,0.041504
2019-01-12T07:15:12.960Z,0.041504
2019-01-12T07:16:22.461Z,0.031433
2019-01-12T07:17:32.043Z,0.031433
2019-01-12T07:18:41.566Z,0.051575
2019-01-12T07:19:51.115Z,0.071716
2019-01-12T07:21:00.644Z,0.081787
2019-01-12T07:22:10.210Z,0.101929
2019-01-12T07:23:19.738Z,0.112
2019-01-12T07:24:29.279Z,0.101929
2019-01-12T07:25:38.802Z,0.12207
2019-01-12T07:26:48.330Z,0.112
2019-01-12T07:27:57.867Z,0.162354
2019-01-12T07:29:07.423Z,0.152283
2019-01-12T07:30:16.946Z,0.162354
2019-01-12T07:31:26.472Z,0.162354
2019-01-12T07:32:36.115Z,0.182495
2019-01-12T07:33:45.739Z,0.182495
2019-01-12T07:34:55.378Z,0.212708
2019-01-12T07:36:04.984Z,0.232849
2019-01-12T07:37:14.529Z,0.222778
2019-01-12T07:38:24.055Z,0.252991
2019-01-12T07:39:33.580Z,0.252991
2019-01-12T07:40:43.131Z,0.252991
2019-01-12T07:41:52.667Z,0.252991
2019-01-12T07:43:02.197Z,0.252991
2019-01-12T07:44:11.745Z,0.293274
2019-01-12T07:45:21.277Z,0.293274
2019-01-12T07:46:30.825Z,0.283203
2019-01-12T07:47:40.498Z,0.323486
2019-01-12T07:48:50.122Z,0.323486
2019-01-12T07:49:59.684Z,0.343628
2019-01-12T07:51:09.189Z,0.37384
2019-01-12T07:52:18.744Z,0.393982
2019-01-12T07:53:28.265Z,0.393982
2019-01-12T07:54:37.805Z,0.404053
2019-01-12T07:55:47.387Z,0.404053
2019-01-12T07:56:56.926Z,0.393982
2019-01-12T07:58:06.757Z,0.404053
2019-01-12T07:59:16.291Z,0.434265
2019-01-12T08:00:25.843Z,0.444336
2019-01-12T08:01:35.370Z,0.474548
2019-01-12T08:02:44.928Z,0.474548
2019-01-12T08:03:54.454Z,0.474548
2019-01-12T08:05:03.971Z,0.464478
2019-01-12T08:06:13.482Z,0.49469
2019-01-12T08:07:23.029Z,0.504761
2019-01-12T08:08:32.594Z,0.524902
2019-01-12T08:09:42.117Z,0.545044
2019-01-12T08:10:51.648Z,0.545044
2019-01-12T08:12:01.203Z,0.585327
2019-01-12T08:13:11.787Z,0.585327
2019-01-12T08:14:21.309Z,0.585327
2019-01-12T08:15:30.828Z,0.62561
2019-01-12T08:16:40.383Z,0.62561
2019-01-12T08:17:49.920Z,0.62561
2019-01-12T08:19:00.455Z,0.645752
2019-01-12T08:20:09.989Z,0.655823
2019-01-12T08:21:19.530Z,0.655823
2019-01-12T08:22:29.083Z,0.726318
2019-01-12T08:23:38.591Z,0.736389
2019-01-12T08:24:48.108Z,0.736389
2019-01-12T08:25:57.640Z,0.726318
2019-01-12T08:27:07.169Z,0.696106
2019-01-12T08:28:16.726Z,0.726318
2019-01-12T08:29:26.239Z,0.686035
2019-01-12T08:30:35.773Z,0.686035
2019-01-12T08:31:45.325Z,0.675964
2019-01-12T08:32:54.881Z,0.726318
2019-01-12T08:34:04.400Z,0.696106
2019-01-12T08:35:13.919Z,0.696106
2019-01-12T08:36:23.439Z,0.726318
2019-01-12T08:37:33.014Z,0.736389
2019-01-12T08:38:42.507Z,0.756531
2019-01-12T08:39:52.016Z,0.756531
2019-01-12T08:41:01.545Z,0.756531
2019-01-12T08:42:11.123Z,0.726318
2019-01-12T08:43:20.717Z,0.756531
2019-01-12T08:44:30.326Z,0.776672
2019-01-12T08:45:39.955Z,0.776672
2019-01-12T08:46:50.545Z,0.796814
2019-01-12T08:48:00.178Z,0.756531
2019-01-12T08:49:09.776Z,0.766602
2019-01-12T08:50:19.382Z,0.776672
2019-01-12T08:51:28.996Z,0.766602
2019-01-12T08:52:38.546Z,0.776672
2019-01-12T08:53:48.059Z,0.766602
2019-01-12T08:54:57.599Z,0.796814
2019-01-12T08:56:07.132Z,0.796814
2019-01-12T08:57:16.648Z,0.806885
2019-01-12T08:58:26.192Z,0.827026
2019-01-12T08:59:35.738Z,0.837097
2019-01-12T09:00:45.279Z,0.857239
2019-01-12T09:01:54.827Z,0.87738
2019-01-12T09:03:04.391Z,0.937805
2019-01-12T09:04:13.978Z,0.917664
2019-01-12T09:05:23.507Z,0.917664
2019-01-12T09:06:33.021Z,0.917664
2019-01-12T09:07:42.567Z,0.917664
2019-01-12T09:08:52.091Z,0.937805
2019-01-12T09:10:01.626Z,0.917664
2019-01-12T09:11:11.162Z,0.907593
2019-01-12T09:12:20.688Z,0.937805
2019-01-12T09:13:30.240Z,0.87738
2019-01-12T09:14:39.966Z,0.947876
2019-01-12T09:15:50.509Z,0.978088
2019-01-12T09:17:00.043Z,1.038513
2019-01-12T09:18:09.612Z,1.11908
2019-01-12T09:19:19.190Z,1.139221
2019-01-12T09:20:28.751Z,1.098938
2019-01-12T09:21:38.455Z,1.098938
2019-01-12T09:22:47.998Z,1.048584
2019-01-12T09:23:57.531Z,1.078796
2019-01-12T09:25:07.071Z,1.048584
2019-01-12T09:26:16.744Z,1.11908
2019-01-12T09:27:26.272Z,1.058655
2019-01-12T09:28:35.890Z,1.078796
2019-01-12T09:29:45.445Z,1.048584
2019-01-12T09:30:54.993Z,1.058655
2019-01-12T09:32:04.622Z,1.078796
2019-01-12T09:33:14.153Z,1.12915
2019-01-12T09:34:23.795Z,1.098938
2019-01-12T09:35:33.405Z,1.098938
2019-01-12T09:36:43.084Z,1.11908
2019-01-12T09:37:52.644Z,1.11908
2019-01-12T09:39:02.290Z,1.12915
2019-01-12T09:40:10.805Z,1.159363
2019-01-12T09:41:20.318Z,1.098938
2019-01-12T09:42:29.848Z,1.12915
2019-01-12T09:43:40.485Z,1.189575
2019-01-12T09:44:50.086Z,1.189575
2019-01-12T09:45:59.635Z,1.219788
2019-01-12T09:47:09.240Z,1.239929
2019-01-12T09:48:17.810Z,1.310425
2019-01-12T09:49:27.350Z,1.350708
2019-01-12T09:50:36.897Z,1.37085
2019-01-12T09:51:46.563Z,1.340637
2019-01-12T09:52:56.088Z,1.300354
2019-01-12T09:54:05.664Z,1.350708
2019-01-12T09:55:15.193Z,1.340637
2019-01-12T09:56:24.777Z,1.340637
2019-01-12T09:57:35.038Z,1.280212
2019-01-12T09:58:46.215Z,1.310425
2019-01-12T09:59:55.798Z,1.320496
2019-01-12T10:01:05.382Z,1.300354
2019-01-12T10:02:14.976Z,1.310425
2019-01-12T10:03:24.576Z,1.310425
2019-01-12T10:04:34.175Z,1.350708
2019-01-12T10:05:43.717Z,1.401062
2019-01-12T10:06:54.293Z,1.421204
2019-01-12T10:08:03.828Z,1.491699
2019-01-12T10:09:13.363Z,1.521912
2019-01-12T10:10:22.892Z,1.481628
2019-01-12T10:11:32.412Z,1.411133
2019-01-12T10:12:41.953Z,1.441345
2019-01-12T10:13:51.518Z,1.441345
2019-01-12T10:15:01.040Z,1.411133
2019-01-12T10:16:10.564Z,1.451416
2019-01-12T10:17:20.094Z,1.481628
2019-01-12T10:18:29.603Z,1.521912
2019-01-12T10:19:39.129Z,1.50177
2019-01-12T10:20:48.634Z,1.521912
2019-01-12T10:21:58.172Z,1.552124
2019-01-12T10:23:07.720Z,1.552124
2019-01-12T10:24:17.259Z,1.562195
2019-01-12T10:25:26.789Z,1.592407
2019-01-12T10:26:36.319Z,1.552124
2019-01-12T10:27:45.854Z,1.562195
2019-01-12T10:28:55.409Z,1.562195
2019-01-12T10:30:04.963Z,1.50177
2019-01-12T10:31:14.599Z,1.521912
2019-01-12T10:32:24.026Z,1.491699
2019-01-12T10:33:33.587Z,1.441345
2019-01-12T10:34:43.132Z,1.441345
2019-01-12T10:35:52.643Z,1.421204
2019-01-12T10:37:02.161Z,1.421204
2019-01-12T10:38:11.857Z,1.421204
2019-01-12T10:39:22.449Z,1.441345
2019-01-12T10:40:31.950Z,1.491699
2019-01-12T10:41:41.472Z,1.451416
2019-01-12T10:42:50.992Z,1.481628
2019-01-12T10:44:00.561Z,1.421204
2019-01-12T10:45:10.112Z,1.441345
2019-01-12T10:46:19.637Z,1.421204
2019-01-12T10:47:29.149Z,1.451416
2019-01-12T10:48:38.682Z,1.411133
2019-01-12T10:49:48.241Z,1.451416
2019-01-12T10:50:57.739Z,1.411133
2019-01-12T10:52:07.301Z,1.421204
2019-01-12T10:53:17.841Z,1.401062
2019-01-12T10:54:27.393Z,1.401062
2019-01-12T10:55:36.930Z,1.411133
2019-01-12T10:56:46.476Z,1.421204
2019-01-12T10:57:56.055Z,1.491699
2019-01-12T10:59:05.620Z,1.481628
2019-01-12T11:00:15.172Z,1.491699
2019-01-12T11:01:24.720Z,1.451416
2019-01-12T11:02:34.221Z,1.441345
2019-01-12T11:03:43.815Z,1.421204
2019-01-12T11:04:53.421Z,1.421204
2019-01-12T11:06:02.960Z,1.421204
2019-01-12T11:07:12.508Z,1.451416
2019-01-12T11:08:22.080Z,1.451416
2019-01-12T11:09:31.666Z,1.421204
2019-01-12T11:10:41.252Z,1.50177
2019-01-12T11:11:50.788Z,1.491699
2019-01-12T11:13:00.345Z,1.421204
2019-01-12T11:14:10.912Z,1.451416
2019-01-12T11:15:20.436Z,1.562195
2019-01-12T11:16:29.975Z,1.582336
2019-01-12T11:17:39.499Z,1.582336
2019-01-12T11:18:49.067Z,1.662903
2019-01-12T11:19:58.588Z,1.703186
2019-01-12T11:21:08.117Z,1.713257
2019-01-12T11:22:17.662Z,1.803894
2019-01-12T11:23:27.192Z,1.763611
2019-01-12T11:24:36.782Z,1.763611
2019-01-12T11:25:46.306Z,1.87439
2019-01-12T11:26:55.863Z,1.954956
2019-01-12T11:28:05.391Z,2.035522
2019-01-12T11:29:15.933Z,2.13623
2019-01-12T11:30:25.442Z,2.106018
2019-01-12T11:31:34.947Z,2.065735
2019-01-12T11:32:44.504Z,2.095947
2019-01-12T11:33:54.060Z,2.075806
2019-01-12T11:35:03.613Z,2.075806
2019-01-12T11:36:13.140Z,2.075806
2019-01-12T11:37:22.671Z,2.055664
2019-01-12T11:38:32.196Z,2.065735
2019-01-12T11:39:41.748Z,2.12616
2019-01-12T11:40:51.274Z,2.247009
2019-01-12T11:42:00.821Z,2.216797
2019-01-12T11:43:10.395Z,2.196655
2019-01-12T11:44:19.949Z,2.216797
2019-01-12T11:45:29.456Z,2.216797
2019-01-12T11:46:38.982Z,2.12616
2019-01-12T11:47:48.580Z,2.166443
2019-01-12T11:48:58.135Z,2.247009
2019-01-12T11:50:07.683Z,2.25708
2019-01-12T11:51:17.208Z,2.317505
2019-01-12T11:52:26.736Z,2.388
2019-01-12T11:53:36.256Z,2.488708
2019-01-12T11:54:45.845Z,2.388
2019-01-12T11:55:55.375Z,2.347717
2019-01-12T11:57:04.898Z,2.37793
2019-01-12T11:58:15.440Z,2.488708
2019-01-12T11:59:24.954Z,2.438354
2019-01-12T12:00:34.515Z,2.37793
2019-01-12T12:01:44.066Z,2.357788
2019-01-12T12:02:53.593Z,2.418213
2019-01-12T12:04:03.136Z,2.307434
2019-01-12T12:05:12.702Z,2.13623
2019-01-12T12:06:22.245Z,2.13623
2019-01-12T12:07:31.780Z,2.287292
2019-01-12T12:08:41.304Z,2.327576
2019-01-12T12:09:50.915Z,2.307434
2019-01-12T12:11:00.454Z,2.428284
2019-01-12T12:12:10.021Z,2.418213
2019-01-12T12:13:19.571Z,2.388
2019-01-12T12:14:29.116Z,2.498779
2019-01-12T12:15:38.679Z,2.50885
2019-01-12T12:16:48.224Z,2.539062
2019-01-12T12:17:57.771Z,2.468567
2019-01-12T12:19:07.319Z,2.498779
2019-01-12T12:20:16.876Z,2.750549
2019-01-12T12:21:27.653Z,2.710266
2019-01-12T12:22:35.949Z,2.831116
2019-01-12T12:23:45.477Z,2.921753
2019-01-12T12:24:55.015Z,3.415222
2019-01-12T12:26:04.649Z,3.596497
2019-01-12T12:27:14.199Z,3.475647
2019-01-12T12:28:24.755Z,3.948975
2019-01-12T12:29:34.255Z,3.989258
2019-01-12T12:30:43.803Z,4.120178
2019-01-12T12:31:53.353Z,3.807983
2019-01-12T12:33:02.898Z,3.868408
2019-01-12T12:34:12.443Z,4.039612
2019-01-12T12:35:22.041Z,3.918762
2019-01-12T12:36:31.601Z,3.838196
2019-01-12T12:37:41.143Z,3.777771
2019-01-12T12:38:50.686Z,3.868408
2019-01-12T12:40:00.234Z,3.546143
2019-01-12T12:41:09.878Z,3.546143
2019-01-12T12:42:19.442Z,3.495789
2019-01-12T12:43:29.038Z,3.374939
2019-01-12T12:44:38.623Z,3.254089
2019-01-12T12:45:48.197Z,3.163452
2019-01-12T12:46:57.798Z,3.13324
2019-01-12T12:48:07.339Z,3.042603
2019-01-12T12:49:16.889Z,3.01239
2019-01-12T12:50:26.486Z,3.032532
2019-01-12T12:51:36.094Z,3.113098
2019-01-12T12:52:45.619Z,3.113098
2019-01-12T12:53:55.159Z,3.072815
2019-01-12T12:55:04.691Z,3.082886
2019-01-12T12:56:14.288Z,3.082886
2019-01-12T12:57:23.821Z,3.072815
2019-01-12T12:58:34.327Z,3.042603
2019-01-12T12:59:43.872Z,2.982178
2019-01-12T13:00:53.453Z,3.032532
2019-01-12T13:02:02.999Z,2.982178
2019-01-12T13:03:12.563Z,2.861328
2019-01-12T13:04:22.106Z,2.861328
2019-01-12T13:05:32.667Z,2.790833
2019-01-12T13:06:42.191Z,2.770691
2019-01-12T13:07:51.696Z,2.790833
2019-01-12T13:09:01.269Z,2.790833
2019-01-12T13:10:10.780Z,2.800903
2019-01-12T13:11:20.322Z,2.740479
2019-01-12T13:12:29.863Z,2.680054
2019-01-12T13:13:39.398Z,2.639771
2019-01-12T13:14:48.931Z,2.680054
2019-01-12T13:15:58.493Z,2.609558
2019-01-12T13:17:08.079Z,2.559204
2019-01-12T13:18:17.615Z,2.619629
2019-01-12T13:19:27.155Z,2.680054
2019-01-12T13:20:36.707Z,2.740479
2019-01-12T13:21:46.259Z,2.669983
2019-01-12T13:22:55.785Z,2.649841
2019-01-12T13:24:05.369Z,2.639771
2019-01-12T13:25:14.893Z,2.639771
2019-01-12T13:26:24.464Z,2.669983
2019-01-12T13:27:39.757Z,2.609558